sensor_id;sensor_type;location;lat;lon;timestamp;temperature;humidity
45283;DHT22;31023;44.994;1.796;2024-01-06T00:01:00;5.50;99.90
45283;DHT22;31023;44.994;1.796;2024-01-06T00:03:26;5.60;99.90
45283;DHT22;31023;44.994;1.796;2024-01-06T00:05:52;5.50;99.90
45283;DHT22;31023;44.994;1.796;2024-01-06T00:08:17;5.50;99.90
45283;DHT22;31023;44.994;1.796;2024-01-06T00:10:43;5.50;99.90
45283;DHT22;31023;44.994;1.796;2024-01-06T00:13:10;5.40;99.90
45283;DHT22;31023;44.994;1.796;2024-01-06T00:15:36;5.30;99.90
45283;DHT22;31023;44.994;1.796;2024-01-06T00:18:02;5.20;99.90
45283;DHT22;31023;44.994;1.796;2024-01-06T00:20:27;5.10;99.90
45283;DHT22;31023;44.994;1.796;2024-01-06T00:22:53;5.00;99.90
45283;DHT22;31023;44.994;1.796;2024-01-06T00:25:19;4.90;99.90
45283;DHT22;31023;44.994;1.796;2024-01-06T00:27:44;4.80;99.90
45283;DHT22;31023;44.994;1.796;2024-01-06T00:30:10;4.70;99.90
45283;DHT22;31023;44.994;1.796;2024-01-06T00:32:36;4.70;99.90
45283;DHT22;31023;44.994;1.796;2024-01-06T00:35:02;4.60;99.90
45283;DHT22;31023;44.994;1.796;2024-01-06T00:37:28;4.40;99.90
45283;DHT22;31023;44.994;1.796;2024-01-06T00:39:53;4.30;99.90
45283;DHT22;31023;44.994;1.796;2024-01-06T00:42:19;4.20;99.90
45283;DHT22;31023;44.994;1.796;2024-01-06T00:44:45;4.30;99.90
45283;DHT22;31023;44.994;1.796;2024-01-06T00:47:11;4.20;99.90
45283;DHT22;31023;44.994;1.796;2024-01-06T00:49:37;4.20;99.90
45283;DHT22;31023;44.994;1.796;2024-01-06T00:52:02;4.00;99.90
45283;DHT22;31023;44.994;1.796;2024-01-06T00:54:28;4.00;99.90
45283;DHT22;31023;44.994;1.796;2024-01-06T00:56:54;4.00;99.90
45283;DHT22;31023;44.994;1.796;2024-01-06T00:59:20;4.00;99.90
45283;DHT22;31023;44.994;1.796;2024-01-06T01:01:45;4.00;99.90
45283;DHT22;31023;44.994;1.796;2024-01-06T01:04:11;4.20;99.90
45283;DHT22;31023;44.994;1.796;2024-01-06T01:06:37;4.30;99.90
45283;DHT22;31023;44.994;1.796;2024-01-06T01:09:03;4.40;99.90
45283;DHT22;31023;44.994;1.796;2024-01-06T01:11:30;4.40;99.90
45283;DHT22;31023;44.994;1.796;2024-01-06T01:13:56;4.30;99.90
45283;DHT22;31023;44.994;1.796;2024-01-06T01:16:21;4.30;99.90
45283;DHT22;31023;44.994;1.796;2024-01-06T01:18:47;4.40;99.90
45283;DHT22;31023;44.994;1.796;2024-01-06T01:21:14;4.40;99.90
45283;DHT22;31023;44.994;1.796;2024-01-06T01:23:39;4.40;99.90
45283;DHT22;31023;44.994;1.796;2024-01-06T01:26:05;4.40;99.90
45283;DHT22;31023;44.994;1.796;2024-01-06T01:28:32;4.20;99.90
45283;DHT22;31023;44.994;1.796;2024-01-06T01:30:57;4.10;99.90
45283;DHT22;31023;44.994;1.796;2024-01-06T01:33:23;4.00;99.90
45283;DHT22;31023;44.994;1.796;2024-01-06T01:35:49;3.90;99.90
45283;DHT22;31023;44.994;1.796;2024-01-06T01:38:15;4.20;99.90
45283;DHT22;31023;44.994;1.796;2024-01-06T01:40:40;4.30;99.90
45283;DHT22;31023;44.994;1.796;2024-01-06T01:43:18;4.30;99.90
45283;DHT22;31023;44.994;1.796;2024-01-06T01:45:45;4.40;99.90
45283;DHT22;31023;44.994;1.796;2024-01-06T01:48:10;4.40;99.90
45283;DHT22;31023;44.994;1.796;2024-01-06T01:50:36;4.30;99.90
45283;DHT22;31023;44.994;1.796;2024-01-06T01:53:02;4.10;99.90
45283;DHT22;31023;44.994;1.796;2024-01-06T01:55:28;4.00;99.90
45283;DHT22;31023;44.994;1.796;2024-01-06T01:57:54;3.90;99.90
45283;DHT22;31023;44.994;1.796;2024-01-06T02:00:20;3.90;99.90
45283;DHT22;31023;44.994;1.796;2024-01-06T02:02:46;3.90;99.90
45283;DHT22;31023;44.994;1.796;2024-01-06T02:05:11;3.90;99.90
45283;DHT22;31023;44.994;1.796;2024-01-06T02:07:37;3.80;99.90
45283;DHT22;31023;44.994;1.796;2024-01-06T02:10:03;3.70;99.90
45283;DHT22;31023;44.994;1.796;2024-01-06T02:12:29;3.50;99.90
45283;DHT22;31023;44.994;1.796;2024-01-06T02:14:55;3.40;99.90
45283;DHT22;31023;44.994;1.796;2024-01-06T02:17:20;3.40;99.90
45283;DHT22;31023;44.994;1.796;2024-01-06T02:19:46;3.50;99.90
45283;DHT22;31023;44.994;1.796;2024-01-06T02:22:12;3.50;99.90
45283;DHT22;31023;44.994;1.796;2024-01-06T02:24:38;3.70;99.90
45283;DHT22;31023;44.994;1.796;2024-01-06T02:27:04;3.90;99.90
45283;DHT22;31023;44.994;1.796;2024-01-06T02:29:29;4.10;99.90
45283;DHT22;31023;44.994;1.796;2024-01-06T02:31:55;4.10;99.90
45283;DHT22;31023;44.994;1.796;2024-01-06T02:34:20;4.00;99.90
45283;DHT22;31023;44.994;1.796;2024-01-06T02:36:46;4.00;99.90
45283;DHT22;31023;44.994;1.796;2024-01-06T02:39:12;3.90;99.90
45283;DHT22;31023;44.994;1.796;2024-01-06T02:41:37;4.00;99.90
45283;DHT22;31023;44.994;1.796;2024-01-06T02:44:03;3.90;99.90
45283;DHT22;31023;44.994;1.796;2024-01-06T02:46:29;4.00;99.90
45283;DHT22;31023;44.994;1.796;2024-01-06T02:48:55;4.10;99.90
45283;DHT22;31023;44.994;1.796;2024-01-06T02:51:21;4.10;99.90
45283;DHT22;31023;44.994;1.796;2024-01-06T02:53:46;4.00;99.90
45283;DHT22;31023;44.994;1.796;2024-01-06T02:56:12;4.00;99.90
45283;DHT22;31023;44.994;1.796;2024-01-06T02:58:38;3.90;99.90
45283;DHT22;31023;44.994;1.796;2024-01-06T03:01:04;3.70;99.90
45283;DHT22;31023;44.994;1.796;2024-01-06T03:03:30;3.60;99.90
45283;DHT22;31023;44.994;1.796;2024-01-06T03:05:55;3.60;99.90
45283;DHT22;31023;44.994;1.796;2024-01-06T03:08:21;3.50;99.90
45283;DHT22;31023;44.994;1.796;2024-01-06T03:10:48;3.50;99.90
45283;DHT22;31023;44.994;1.796;2024-01-06T03:13:14;3.50;99.90
45283;DHT22;31023;44.994;1.796;2024-01-06T03:15:39;3.50;99.90
45283;DHT22;31023;44.994;1.796;2024-01-06T03:18:05;3.50;99.90
45283;DHT22;31023;44.994;1.796;2024-01-06T03:20:31;3.50;99.90
45283;DHT22;31023;44.994;1.796;2024-01-06T03:22:57;3.50;99.90
45283;DHT22;31023;44.994;1.796;2024-01-06T03:25:23;3.40;99.90
45283;DHT22;31023;44.994;1.796;2024-01-06T03:27:48;3.40;99.90
45283;DHT22;31023;44.994;1.796;2024-01-06T03:30:14;3.30;99.90
45283;DHT22;31023;44.994;1.796;2024-01-06T03:32:40;3.40;99.90
45283;DHT22;31023;44.994;1.796;2024-01-06T03:35:06;3.30;99.90
45283;DHT22;31023;44.994;1.796;2024-01-06T03:37:32;3.40;99.90
45283;DHT22;31023;44.994;1.796;2024-01-06T03:39:58;3.30;99.90
45283;DHT22;31023;44.994;1.796;2024-01-06T03:42:24;3.30;99.90
45283;DHT22;31023;44.994;1.796;2024-01-06T03:44:50;3.30;99.90
45283;DHT22;31023;44.994;1.796;2024-01-06T03:47:15;3.30;99.90
45283;DHT22;31023;44.994;1.796;2024-01-06T03:49:41;3.50;99.90
45283;DHT22;31023;44.994;1.796;2024-01-06T03:52:06;3.70;99.90
45283;DHT22;31023;44.994;1.796;2024-01-06T03:54:32;4.00;99.90
45283;DHT22;31023;44.994;1.796;2024-01-06T03:56:58;4.20;99.90
45283;DHT22;31023;44.994;1.796;2024-01-06T03:59:23;4.30;99.90
45283;DHT22;31023;44.994;1.796;2024-01-06T04:01:49;4.40;99.90
45283;DHT22;31023;44.994;1.796;2024-01-06T04:04:14;4.50;99.90
45283;DHT22;31023;44.994;1.796;2024-01-06T04:06:40;4.50;99.90
45283;DHT22;31023;44.994;1.796;2024-01-06T04:09:06;4.50;99.90
45283;DHT22;31023;44.994;1.796;2024-01-06T04:11:31;4.60;99.90
45283;DHT22;31023;44.994;1.796;2024-01-06T04:13:57;4.60;99.90
45283;DHT22;31023;44.994;1.796;2024-01-06T04:16:23;4.60;99.90
45283;DHT22;31023;44.994;1.796;2024-01-06T04:18:48;4.60;99.90
45283;DHT22;31023;44.994;1.796;2024-01-06T04:21:14;4.50;99.90
45283;DHT22;31023;44.994;1.796;2024-01-06T04:23:40;4.50;99.90
45283;DHT22;31023;44.994;1.796;2024-01-06T04:26:05;4.60;99.90
45283;DHT22;31023;44.994;1.796;2024-01-06T04:28:32;4.50;99.90
45283;DHT22;31023;44.994;1.796;2024-01-06T04:30:58;4.30;99.90
45283;DHT22;31023;44.994;1.796;2024-01-06T04:33:23;4.30;99.90
45283;DHT22;31023;44.994;1.796;2024-01-06T04:35:49;4.30;99.90
45283;DHT22;31023;44.994;1.796;2024-01-06T04:38:15;4.40;99.90
45283;DHT22;31023;44.994;1.796;2024-01-06T04:40:41;4.40;99.90
45283;DHT22;31023;44.994;1.796;2024-01-06T04:43:07;4.30;99.90
45283;DHT22;31023;44.994;1.796;2024-01-06T04:45:32;4.40;99.90
45283;DHT22;31023;44.994;1.796;2024-01-06T04:47:58;4.50;99.90
45283;DHT22;31023;44.994;1.796;2024-01-06T04:50:24;4.50;99.90
45283;DHT22;31023;44.994;1.796;2024-01-06T04:52:49;4.50;99.90
45283;DHT22;31023;44.994;1.796;2024-01-06T04:55:15;4.50;99.90
45283;DHT22;31023;44.994;1.796;2024-01-06T04:57:41;4.50;99.90
45283;DHT22;31023;44.994;1.796;2024-01-06T05:00:07;4.50;99.90
45283;DHT22;31023;44.994;1.796;2024-01-06T05:02:33;4.50;99.90
45283;DHT22;31023;44.994;1.796;2024-01-06T05:04:59;4.50;99.90
45283;DHT22;31023;44.994;1.796;2024-01-06T05:07:25;4.50;99.90
45283;DHT22;31023;44.994;1.796;2024-01-06T05:09:50;4.50;99.90
45283;DHT22;31023;44.994;1.796;2024-01-06T05:12:16;4.50;99.90
45283;DHT22;31023;44.994;1.796;2024-01-06T05:14:42;4.60;99.90
45283;DHT22;31023;44.994;1.796;2024-01-06T05:17:07;4.70;99.90
45283;DHT22;31023;44.994;1.796;2024-01-06T05:19:34;4.60;99.90
45283;DHT22;31023;44.994;1.796;2024-01-06T05:22:00;4.60;99.90
45283;DHT22;31023;44.994;1.796;2024-01-06T05:24:26;4.50;99.90
45283;DHT22;31023;44.994;1.796;2024-01-06T05:26:52;4.50;99.90
45283;DHT22;31023;44.994;1.796;2024-01-06T05:29:17;4.50;99.90
45283;DHT22;31023;44.994;1.796;2024-01-06T05:31:43;4.60;99.90
45283;DHT22;31023;44.994;1.796;2024-01-06T05:34:09;4.60;99.90
45283;DHT22;31023;44.994;1.796;2024-01-06T05:36:34;4.60;99.90
45283;DHT22;31023;44.994;1.796;2024-01-06T05:39:00;4.60;99.90
45283;DHT22;31023;44.994;1.796;2024-01-06T05:41:26;4.60;99.90
45283;DHT22;31023;44.994;1.796;2024-01-06T05:43:51;4.70;99.90
45283;DHT22;31023;44.994;1.796;2024-01-06T05:46:25;4.70;99.90
45283;DHT22;31023;44.994;1.796;2024-01-06T05:48:51;4.70;99.90
45283;DHT22;31023;44.994;1.796;2024-01-06T05:51:16;4.60;99.90
45283;DHT22;31023;44.994;1.796;2024-01-06T05:53:42;4.60;99.90
45283;DHT22;31023;44.994;1.796;2024-01-06T05:56:08;4.70;99.90
45283;DHT22;31023;44.994;1.796;2024-01-06T05:58:35;4.60;99.90
45283;DHT22;31023;44.994;1.796;2024-01-06T06:01:00;4.70;99.90
45283;DHT22;31023;44.994;1.796;2024-01-06T06:03:26;4.70;99.90
45283;DHT22;31023;44.994;1.796;2024-01-06T06:05:52;4.60;99.90
45283;DHT22;31023;44.994;1.796;2024-01-06T06:08:18;4.40;99.90
45283;DHT22;31023;44.994;1.796;2024-01-06T06:10:44;4.40;99.90
45283;DHT22;31023;44.994;1.796;2024-01-06T06:13:30;4.30;99.90
45283;DHT22;31023;44.994;1.796;2024-01-06T06:15:55;4.30;99.90
45283;DHT22;31023;44.994;1.796;2024-01-06T06:18:21;4.30;99.90
45283;DHT22;31023;44.994;1.796;2024-01-06T06:20:47;4.40;99.90
45283;DHT22;31023;44.994;1.796;2024-01-06T06:23:13;4.30;99.90
45283;DHT22;31023;44.994;1.796;2024-01-06T06:25:39;4.40;99.90
45283;DHT22;31023;44.994;1.796;2024-01-06T06:28:05;4.40;99.90
45283;DHT22;31023;44.994;1.796;2024-01-06T06:30:32;4.60;99.90
45283;DHT22;31023;44.994;1.796;2024-01-06T06:32:57;4.60;99.90
45283;DHT22;31023;44.994;1.796;2024-01-06T06:35:24;4.60;99.90
45283;DHT22;31023;44.994;1.796;2024-01-06T06:37:50;4.40;99.90
45283;DHT22;31023;44.994;1.796;2024-01-06T06:40:15;4.60;99.90
45283;DHT22;31023;44.994;1.796;2024-01-06T06:42:41;4.70;99.90
45283;DHT22;31023;44.994;1.796;2024-01-06T06:45:07;4.70;99.90
45283;DHT22;31023;44.994;1.796;2024-01-06T06:47:33;4.40;99.90
45283;DHT22;31023;44.994;1.796;2024-01-06T06:49:59;4.30;99.90
45283;DHT22;31023;44.994;1.796;2024-01-06T06:52:25;4.30;99.90
45283;DHT22;31023;44.994;1.796;2024-01-06T06:54:51;4.10;99.90
45283;DHT22;31023;44.994;1.796;2024-01-06T06:57:18;4.10;99.90
45283;DHT22;31023;44.994;1.796;2024-01-06T06:59:44;4.10;99.90
45283;DHT22;31023;44.994;1.796;2024-01-06T07:02:10;4.20;99.90
45283;DHT22;31023;44.994;1.796;2024-01-06T07:04:36;4.20;99.90
45283;DHT22;31023;44.994;1.796;2024-01-06T07:07:02;4.30;99.90
45283;DHT22;31023;44.994;1.796;2024-01-06T07:09:27;4.30;99.90
45283;DHT22;31023;44.994;1.796;2024-01-06T07:11:53;4.10;99.90
45283;DHT22;31023;44.994;1.796;2024-01-06T07:14:19;4.30;99.90
45283;DHT22;31023;44.994;1.796;2024-01-06T07:16:44;4.40;99.90
45283;DHT22;31023;44.994;1.796;2024-01-06T07:19:10;4.40;99.90
45283;DHT22;31023;44.994;1.796;2024-01-06T07:21:36;4.20;99.90
45283;DHT22;31023;44.994;1.796;2024-01-06T07:24:02;4.30;99.90
45283;DHT22;31023;44.994;1.796;2024-01-06T07:26:28;4.30;99.90
45283;DHT22;31023;44.994;1.796;2024-01-06T07:28:54;4.30;99.90
45283;DHT22;31023;44.994;1.796;2024-01-06T07:31:20;4.40;99.90
45283;DHT22;31023;44.994;1.796;2024-01-06T07:33:46;4.50;99.90
45283;DHT22;31023;44.994;1.796;2024-01-06T07:36:12;4.50;99.90
45283;DHT22;31023;44.994;1.796;2024-01-06T07:38:38;4.60;99.90
45283;DHT22;31023;44.994;1.796;2024-01-06T07:41:03;4.60;99.90
45283;DHT22;31023;44.994;1.796;2024-01-06T07:43:32;4.50;99.90
45283;DHT22;31023;44.994;1.796;2024-01-06T07:45:57;4.50;99.90
45283;DHT22;31023;44.994;1.796;2024-01-06T07:48:23;4.40;99.90
45283;DHT22;31023;44.994;1.796;2024-01-06T07:50:49;4.30;99.90
45283;DHT22;31023;44.994;1.796;2024-01-06T07:53:15;4.20;99.90
45283;DHT22;31023;44.994;1.796;2024-01-06T07:55:41;4.40;99.90
45283;DHT22;31023;44.994;1.796;2024-01-06T07:58:06;4.40;99.90
45283;DHT22;31023;44.994;1.796;2024-01-06T08:00:32;4.60;99.90
45283;DHT22;31023;44.994;1.796;2024-01-06T08:02:58;4.50;99.90
45283;DHT22;31023;44.994;1.796;2024-01-06T08:05:24;4.50;99.90
45283;DHT22;31023;44.994;1.796;2024-01-06T08:07:51;4.40;99.90
45283;DHT22;31023;44.994;1.796;2024-01-06T08:10:17;4.70;99.90
45283;DHT22;31023;44.994;1.796;2024-01-06T08:12:43;4.70;99.90
45283;DHT22;31023;44.994;1.796;2024-01-06T08:15:09;4.70;99.90
45283;DHT22;31023;44.994;1.796;2024-01-06T08:17:35;4.60;99.90
45283;DHT22;31023;44.994;1.796;2024-01-06T08:20:01;4.70;99.90
45283;DHT22;31023;44.994;1.796;2024-01-06T08:22:28;4.60;99.90
45283;DHT22;31023;44.994;1.796;2024-01-06T08:24:54;4.70;99.90
45283;DHT22;31023;44.994;1.796;2024-01-06T08:27:20;4.70;99.90
45283;DHT22;31023;44.994;1.796;2024-01-06T08:29:46;4.90;99.90
45283;DHT22;31023;44.994;1.796;2024-01-06T08:32:12;4.70;99.90
45283;DHT22;31023;44.994;1.796;2024-01-06T08:34:40;4.80;99.90
45283;DHT22;31023;44.994;1.796;2024-01-06T08:37:05;4.80;99.90
45283;DHT22;31023;44.994;1.796;2024-01-06T08:39:31;4.70;99.90
45283;DHT22;31023;44.994;1.796;2024-01-06T08:41:57;4.70;99.90
45283;DHT22;31023;44.994;1.796;2024-01-06T08:44:23;4.60;99.90
45283;DHT22;31023;44.994;1.796;2024-01-06T08:46:48;4.60;99.90
45283;DHT22;31023;44.994;1.796;2024-01-06T08:49:14;4.70;99.90
45283;DHT22;31023;44.994;1.796;2024-01-06T08:51:39;4.60;99.90
45283;DHT22;31023;44.994;1.796;2024-01-06T08:54:05;4.70;99.90
45283;DHT22;31023;44.994;1.796;2024-01-06T08:56:32;4.70;99.90
45283;DHT22;31023;44.994;1.796;2024-01-06T08:58:57;4.60;99.90
45283;DHT22;31023;44.994;1.796;2024-01-06T09:01:24;4.70;99.90
45283;DHT22;31023;44.994;1.796;2024-01-06T09:03:49;4.80;99.90
45283;DHT22;31023;44.994;1.796;2024-01-06T09:06:15;4.80;99.90
45283;DHT22;31023;44.994;1.796;2024-01-06T09:08:41;4.70;99.90
45283;DHT22;31023;44.994;1.796;2024-01-06T09:11:07;4.60;99.90
45283;DHT22;31023;44.994;1.796;2024-01-06T09:13:32;4.60;99.90
45283;DHT22;31023;44.994;1.796;2024-01-06T09:15:58;4.70;99.90
45283;DHT22;31023;44.994;1.796;2024-01-06T09:18:26;5.00;99.90
45283;DHT22;31023;44.994;1.796;2024-01-06T09:20:52;5.30;99.90
45283;DHT22;31023;44.994;1.796;2024-01-06T09:23:19;5.30;99.90
45283;DHT22;31023;44.994;1.796;2024-01-06T09:25:46;5.30;99.90
45283;DHT22;31023;44.994;1.796;2024-01-06T09:28:15;5.50;99.90
45283;DHT22;31023;44.994;1.796;2024-01-06T09:30:41;5.70;99.90
45283;DHT22;31023;44.994;1.796;2024-01-06T09:33:06;5.60;99.90
45283;DHT22;31023;44.994;1.796;2024-01-06T09:35:33;5.90;99.90
45283;DHT22;31023;44.994;1.796;2024-01-06T09:37:59;6.00;99.90
45283;DHT22;31023;44.994;1.796;2024-01-06T09:40:25;5.60;99.90
45283;DHT22;31023;44.994;1.796;2024-01-06T09:42:51;6.50;99.90
45283;DHT22;31023;44.994;1.796;2024-01-06T09:45:17;6.80;99.90
45283;DHT22;31023;44.994;1.796;2024-01-06T09:47:47;6.50;99.90
45283;DHT22;31023;44.994;1.796;2024-01-06T09:50:14;6.20;99.90
45283;DHT22;31023;44.994;1.796;2024-01-06T09:52:45;6.20;99.90
45283;DHT22;31023;44.994;1.796;2024-01-06T09:55:18;6.20;99.90
45283;DHT22;31023;44.994;1.796;2024-01-06T09:57:47;6.50;99.90
45283;DHT22;31023;44.994;1.796;2024-01-06T10:00:14;6.70;99.90
45283;DHT22;31023;44.994;1.796;2024-01-06T10:02:40;6.40;99.90
45283;DHT22;31023;44.994;1.796;2024-01-06T10:05:06;6.50;99.90
45283;DHT22;31023;44.994;1.796;2024-01-06T10:07:33;6.80;99.90
45283;DHT22;31023;44.994;1.796;2024-01-06T10:09:59;6.70;99.90
45283;DHT22;31023;44.994;1.796;2024-01-06T10:12:25;6.50;99.90
45283;DHT22;31023;44.994;1.796;2024-01-06T10:14:52;6.40;99.90
45283;DHT22;31023;44.994;1.796;2024-01-06T10:17:18;6.60;99.90
45283;DHT22;31023;44.994;1.796;2024-01-06T10:19:45;6.70;99.90
45283;DHT22;31023;44.994;1.796;2024-01-06T10:22:11;6.90;99.90
45283;DHT22;31023;44.994;1.796;2024-01-06T10:24:37;6.90;99.90
45283;DHT22;31023;44.994;1.796;2024-01-06T10:27:03;7.00;99.90
45283;DHT22;31023;44.994;1.796;2024-01-06T10:29:29;6.80;99.90
45283;DHT22;31023;44.994;1.796;2024-01-06T10:31:55;6.80;99.90
45283;DHT22;31023;44.994;1.796;2024-01-06T10:34:22;6.70;99.90
45283;DHT22;31023;44.994;1.796;2024-01-06T10:36:49;6.90;99.90
45283;DHT22;31023;44.994;1.796;2024-01-06T10:39:15;6.70;99.90
45283;DHT22;31023;44.994;1.796;2024-01-06T10:41:41;6.60;99.90
45283;DHT22;31023;44.994;1.796;2024-01-06T10:44:08;6.30;99.90
45283;DHT22;31023;44.994;1.796;2024-01-06T10:46:35;6.40;99.90
45283;DHT22;31023;44.994;1.796;2024-01-06T10:49:03;6.20;99.90
45283;DHT22;31023;44.994;1.796;2024-01-06T10:51:32;6.10;99.90
45283;DHT22;31023;44.994;1.796;2024-01-06T10:54:00;6.20;99.90
45283;DHT22;31023;44.994;1.796;2024-01-06T10:56:26;6.30;99.90
45283;DHT22;31023;44.994;1.796;2024-01-06T10:58:53;6.40;99.90
45283;DHT22;31023;44.994;1.796;2024-01-06T11:01:23;6.50;99.90
45283;DHT22;31023;44.994;1.796;2024-01-06T11:03:50;6.50;99.90
45283;DHT22;31023;44.994;1.796;2024-01-06T11:06:17;6.50;99.90
45283;DHT22;31023;44.994;1.796;2024-01-06T11:11:51;6.70;99.90
45283;DHT22;31023;44.994;1.796;2024-01-06T11:14:19;6.20;99.90
45283;DHT22;31023;44.994;1.796;2024-01-06T11:16:48;6.40;99.90
45283;DHT22;31023;44.994;1.796;2024-01-06T11:24:57;6.30;99.90
45283;DHT22;31023;44.994;1.796;2024-01-06T11:27:28;6.50;99.90
45283;DHT22;31023;44.994;1.796;2024-01-06T11:29:59;6.80;99.90
45283;DHT22;31023;44.994;1.796;2024-01-06T11:32:36;7.10;99.90
45283;DHT22;31023;44.994;1.796;2024-01-06T11:40:09;7.00;99.90
45283;DHT22;31023;44.994;1.796;2024-01-06T11:42:36;6.90;99.90
45283;DHT22;31023;44.994;1.796;2024-01-06T11:45:03;6.80;99.90
45283;DHT22;31023;44.994;1.796;2024-01-06T11:47:29;6.80;99.90
45283;DHT22;31023;44.994;1.796;2024-01-06T11:49:59;7.00;99.90
45283;DHT22;31023;44.994;1.796;2024-01-06T11:52:26;7.20;99.90
45283;DHT22;31023;44.994;1.796;2024-01-06T11:54:54;7.30;99.90
45283;DHT22;31023;44.994;1.796;2024-01-06T11:57:21;7.30;99.90
45283;DHT22;31023;44.994;1.796;2024-01-06T11:59:48;7.20;99.90
45283;DHT22;31023;44.994;1.796;2024-01-06T12:02:13;7.20;99.90
45283;DHT22;31023;44.994;1.796;2024-01-06T12:04:40;7.30;99.90
45283;DHT22;31023;44.994;1.796;2024-01-06T12:07:09;7.10;99.90
45283;DHT22;31023;44.994;1.796;2024-01-06T12:09:35;7.20;99.90
45283;DHT22;31023;44.994;1.796;2024-01-06T12:12:03;7.40;99.90
45283;DHT22;31023;44.994;1.796;2024-01-06T12:14:29;7.50;99.90
45283;DHT22;31023;44.994;1.796;2024-01-06T12:16:55;7.50;99.90
45283;DHT22;31023;44.994;1.796;2024-01-06T12:19:25;7.50;99.90
45283;DHT22;31023;44.994;1.796;2024-01-06T12:21:51;7.20;99.90
45283;DHT22;31023;44.994;1.796;2024-01-06T12:24:19;7.30;99.90
45283;DHT22;31023;44.994;1.796;2024-01-06T12:26:49;7.20;99.90
45283;DHT22;31023;44.994;1.796;2024-01-06T12:29:16;7.40;99.90
45283;DHT22;31023;44.994;1.796;2024-01-06T12:31:43;7.40;99.90
45283;DHT22;31023;44.994;1.796;2024-01-06T12:34:10;7.30;99.90
45283;DHT22;31023;44.994;1.796;2024-01-06T12:36:37;7.40;99.90
45283;DHT22;31023;44.994;1.796;2024-01-06T12:39:03;7.20;99.90
45283;DHT22;31023;44.994;1.796;2024-01-06T12:41:29;7.30;99.90
45283;DHT22;31023;44.994;1.796;2024-01-06T12:43:55;7.30;99.90
45283;DHT22;31023;44.994;1.796;2024-01-06T12:46:21;7.10;99.90
45283;DHT22;31023;44.994;1.796;2024-01-06T12:48:46;7.10;99.90
45283;DHT22;31023;44.994;1.796;2024-01-06T12:51:12;7.20;99.90
45283;DHT22;31023;44.994;1.796;2024-01-06T12:53:38;7.10;99.90
45283;DHT22;31023;44.994;1.796;2024-01-06T12:56:04;7.30;99.90
45283;DHT22;31023;44.994;1.796;2024-01-06T12:58:30;7.30;99.90
45283;DHT22;31023;44.994;1.796;2024-01-06T13:00:55;7.50;99.90
45283;DHT22;31023;44.994;1.796;2024-01-06T13:03:22;7.70;99.90
45283;DHT22;31023;44.994;1.796;2024-01-06T13:05:48;7.60;99.90
45283;DHT22;31023;44.994;1.796;2024-01-06T13:08:13;7.80;99.90
45283;DHT22;31023;44.994;1.796;2024-01-06T13:10:39;7.70;99.90
45283;DHT22;31023;44.994;1.796;2024-01-06T13:13:04;7.50;99.80
45283;DHT22;31023;44.994;1.796;2024-01-06T13:15:30;7.30;99.90
45283;DHT22;31023;44.994;1.796;2024-01-06T13:17:57;7.40;99.90
45283;DHT22;31023;44.994;1.796;2024-01-06T13:20:23;7.30;99.00
45283;DHT22;31023;44.994;1.796;2024-01-06T13:22:48;7.20;99.10
45283;DHT22;31023;44.994;1.796;2024-01-06T13:25:17;7.40;99.40
45283;DHT22;31023;44.994;1.796;2024-01-06T13:27:42;7.60;99.40
45283;DHT22;31023;44.994;1.796;2024-01-06T13:30:08;7.50;99.20
45283;DHT22;31023;44.994;1.796;2024-01-06T13:32:38;7.40;99.50
45283;DHT22;31023;44.994;1.796;2024-01-06T13:35:04;7.50;99.10
45283;DHT22;31023;44.994;1.796;2024-01-06T13:37:34;7.40;98.70
45283;DHT22;31023;44.994;1.796;2024-01-06T13:40:00;7.10;98.80
45283;DHT22;31023;44.994;1.796;2024-01-06T13:42:26;6.90;99.90
45283;DHT22;31023;44.994;1.796;2024-01-06T13:44:51;6.90;99.90
45283;DHT22;31023;44.994;1.796;2024-01-06T13:47:17;6.70;99.90
45283;DHT22;31023;44.994;1.796;2024-01-06T13:49:43;6.70;99.90
45283;DHT22;31023;44.994;1.796;2024-01-06T13:52:09;6.80;99.70
45283;DHT22;31023;44.994;1.796;2024-01-06T13:54:35;6.90;99.90
45283;DHT22;31023;44.994;1.796;2024-01-06T13:57:01;7.00;99.70
45283;DHT22;31023;44.994;1.796;2024-01-06T13:59:27;7.10;99.90
45283;DHT22;31023;44.994;1.796;2024-01-06T14:01:53;7.10;99.30
45283;DHT22;31023;44.994;1.796;2024-01-06T14:04:19;7.00;99.00
45283;DHT22;31023;44.994;1.796;2024-01-06T14:06:44;6.70;99.60
45283;DHT22;31023;44.994;1.796;2024-01-06T14:09:13;6.50;99.90
45283;DHT22;31023;44.994;1.796;2024-01-06T14:11:39;6.40;99.90
45283;DHT22;31023;44.994;1.796;2024-01-06T14:14:05;6.40;99.90
45283;DHT22;31023;44.994;1.796;2024-01-06T14:16:30;6.30;99.90
45283;DHT22;31023;44.994;1.796;2024-01-06T14:18:56;6.20;99.90
45283;DHT22;31023;44.994;1.796;2024-01-06T14:21:23;6.30;99.90
45283;DHT22;31023;44.994;1.796;2024-01-06T14:23:49;6.40;99.90
45283;DHT22;31023;44.994;1.796;2024-01-06T14:26:18;6.60;99.90
45283;DHT22;31023;44.994;1.796;2024-01-06T14:28:47;6.60;99.90
45283;DHT22;31023;44.994;1.796;2024-01-06T14:31:13;6.50;99.90
45283;DHT22;31023;44.994;1.796;2024-01-06T14:33:38;6.40;99.90
45283;DHT22;31023;44.994;1.796;2024-01-06T14:36:04;6.50;99.90
45283;DHT22;31023;44.994;1.796;2024-01-06T14:38:30;6.50;99.90
45283;DHT22;31023;44.994;1.796;2024-01-06T14:40:56;6.60;99.90
45283;DHT22;31023;44.994;1.796;2024-01-06T14:43:21;6.80;99.90
45283;DHT22;31023;44.994;1.796;2024-01-06T14:45:47;7.00;99.70
45283;DHT22;31023;44.994;1.796;2024-01-06T14:48:13;6.70;99.00
45283;DHT22;31023;44.994;1.796;2024-01-06T14:50:39;6.40;99.90
45283;DHT22;31023;44.994;1.796;2024-01-06T14:53:05;6.40;99.90
45283;DHT22;31023;44.994;1.796;2024-01-06T14:55:31;6.60;99.60
45283;DHT22;31023;44.994;1.796;2024-01-06T14:57:57;6.90;99.70
45283;DHT22;31023;44.994;1.796;2024-01-06T15:00:23;7.00;98.10
45283;DHT22;31023;44.994;1.796;2024-01-06T15:02:50;7.10;98.20
45283;DHT22;31023;44.994;1.796;2024-01-06T15:05:16;7.40;97.80
45283;DHT22;31023;44.994;1.796;2024-01-06T15:07:42;7.50;97.00
45283;DHT22;31023;44.994;1.796;2024-01-06T15:10:08;7.30;97.40
45283;DHT22;31023;44.994;1.796;2024-01-06T15:12:35;7.30;97.40
45283;DHT22;31023;44.994;1.796;2024-01-06T15:15:01;7.00;97.10
45283;DHT22;31023;44.994;1.796;2024-01-06T15:17:27;6.90;97.70
45283;DHT22;31023;44.994;1.796;2024-01-06T15:19:53;6.80;97.70
45283;DHT22;31023;44.994;1.796;2024-01-06T15:22:19;6.70;98.30
45283;DHT22;31023;44.994;1.796;2024-01-06T15:24:44;6.70;97.90
45283;DHT22;31023;44.994;1.796;2024-01-06T15:27:13;6.70;98.40
45283;DHT22;31023;44.994;1.796;2024-01-06T15:29:38;6.70;98.20
45283;DHT22;31023;44.994;1.796;2024-01-06T15:32:04;6.60;98.00
45283;DHT22;31023;44.994;1.796;2024-01-06T15:34:30;6.50;98.10
45283;DHT22;31023;44.994;1.796;2024-01-06T15:36:56;6.40;99.20
45283;DHT22;31023;44.994;1.796;2024-01-06T15:39:22;6.50;99.30
45283;DHT22;31023;44.994;1.796;2024-01-06T15:41:47;6.50;99.50
45283;DHT22;31023;44.994;1.796;2024-01-06T15:44:13;6.50;99.80
45283;DHT22;31023;44.994;1.796;2024-01-06T15:46:39;6.40;99.80
45283;DHT22;31023;44.994;1.796;2024-01-06T15:49:05;6.30;99.90
45283;DHT22;31023;44.994;1.796;2024-01-06T15:51:30;6.20;99.90